Time;durP1;ratioP1;P1;durP2;ratioP2;P2;SDS_P1;SDS_P2;PMS_P1;PMS_P2;Temp;Humidity;BMP_temperature;BMP_pressure;BME280_temperature;BME280_humidity;BME280_pressure;Samples;Min_cycle;Max_cycle;Signal;HPM_P1;HPM_P2
2022/12/25 00:00:27;;;;;;;56.33;16.00;;;5.40;99.90;;;;;;5029933;28;20044;-65
2022/12/25 00:02:53;;;;;;;46.53;14.05;;;5.40;99.90;;;;;;5028085;28;20083;-65
2022/12/25 00:05:18;;;;;;;45.58;14.30;;;5.50;99.90;;;;;;5030702;28;20500;-65
2022/12/25 00:07:44;;;;;;;48.90;14.32;;;5.50;99.90;;;;;;5031650;28;20037;-65
2022/12/25 00:10:10;;;;;;;55.80;15.13;;;5.50;99.90;;;;;;5025573;28;20048;-65
2022/12/25 00:12:36;;;;;;;52.92;13.88;;;5.40;99.90;;;;;;5018277;28;20041;-64
2022/12/25 00:15:02;;;;;;;49.97;14.27;;;5.40;99.90;;;;;;5030823;28;20496;-65
2022/12/25 00:17:27;;;;;;;77.63;14.63;;;5.40;99.90;;;;;;5031238;28;20416;-65
2022/12/25 00:19:53;;;;;;;56.42;14.80;;;5.40;99.90;;;;;;5025689;28;20044;-65
2022/12/25 00:22:19;;;;;;;53.97;13.73;;;5.40;99.90;;;;;;5025952;28;20112;-65
2022/12/25 00:24:46;;;;;;;61.38;14.27;;;5.30;99.90;;;;;;5031282;28;20037;-65
2022/12/25 00:27:12;;;;;;;42.80;14.30;;;5.20;99.90;;;;;;5024722;28;20444;-65
2022/12/25 00:29:37;;;;;;;50.55;13.60;;;5.20;99.90;;;;;;5030166;28;20068;-65
2022/12/25 00:32:03;;;;;;;52.03;13.25;;;5.30;99.90;;;;;;5013043;28;20072;-65
2022/12/25 00:34:29;;;;;;;43.20;12.57;;;5.30;99.90;;;;;;5025992;28;20396;-65
2022/12/25 00:36:55;;;;;;;60.17;13.35;;;5.20;99.90;;;;;;5011732;28;20049;-65
2022/12/25 00:39:20;;;;;;;46.15;12.73;;;5.20;99.90;;;;;;5027663;28;20033;-65
2022/12/25 00:44:30;;;;;;;58.47;13.00;;;5.10;99.90;;;;;;5020111;28;20045;-65
2022/12/25 00:46:55;;;;;;;59.72;14.00;;;5.10;99.90;;;;;;5028095;28;20025;-65
2022/12/25 00:49:22;;;;;;;49.95;12.63;;;5.00;99.90;;;;;;5034572;28;20514;-65
2022/12/25 00:51:51;;;;;;;62.63;13.63;;;5.00;99.90;;;;;;5027357;28;20439;-65
2022/12/25 00:54:18;;;;;;;52.85;13.38;;;5.10;99.90;;;;;;5010650;28;20076;-65
2022/12/25 00:56:44;;;;;;;61.33;14.57;;;5.20;99.90;;;;;;5034638;28;20052;-65
2022/12/25 00:59:10;;;;;;;52.40;13.02;;;5.20;99.90;;;;;;5034367;28;20046;-65
2022/12/25 01:01:36;;;;;;;53.60;13.55;;;5.30;99.90;;;;;;5025802;28;20581;-65
2022/12/25 01:04:02;;;;;;;68.05;15.07;;;5.30;99.90;;;;;;5034122;28;20029;-65
2022/12/25 01:06:29;;;;;;;61.58;13.60;;;5.30;99.90;;;;;;5016240;28;20124;-65
2022/12/25 01:11:39;;;;;;;57.00;14.50;;;5.40;99.90;;;;;;5022251;28;20178;-65
2022/12/25 01:14:05;;;;;;;58.20;15.75;;;5.50;99.90;;;;;;5032082;28;20676;-65
2022/12/25 01:16:31;;;;;;;54.80;14.05;;;5.60;99.90;;;;;;5027946;28;20042;-65
2022/12/25 01:18:56;;;;;;;54.70;14.32;;;5.70;99.90;;;;;;5031574;28;20045;-65
2022/12/25 01:21:23;;;;;;;68.95;14.82;;;5.80;99.90;;;;;;5033271;28;20033;-65
2022/12/25 01:23:50;;;;;;;54.00;15.13;;;5.80;99.90;;;;;;5033537;28;20038;-65
2022/12/25 01:26:16;;;;;;;54.35;14.88;;;6.00;99.90;;;;;;5021579;28;20042;-65
2022/12/25 01:28:42;;;;;;;55.30;15.15;;;6.10;99.90;;;;;;5031756;28;20045;-65
2022/12/25 01:31:10;;;;;;;62.08;15.80;;;6.20;99.90;;;;;;5033338;28;20043;-65
2022/12/25 01:33:36;;;;;;;60.50;15.43;;;6.30;99.90;;;;;;5025865;28;20034;-65
2022/12/25 01:36:03;;;;;;;53.75;15.95;;;6.40;99.90;;;;;;5025222;28;20040;-65
2022/12/25 01:38:29;;;;;;;59.35;16.05;;;6.50;99.90;;;;;;5033566;28;20120;-65
2022/12/25 01:40:54;;;;;;;52.33;14.82;;;6.60;99.90;;;;;;5032981;28;20440;-66
2022/12/25 01:43:24;;;;;;;58.75;15.15;;;6.70;99.90;;;;;;5027154;28;20053;-65
2022/12/25 01:45:51;;;;;;;61.13;14.70;;;6.70;99.90;;;;;;5033404;28;20034;-65
2022/12/25 01:48:31;;;;;;;51.92;15.13;;;6.80;99.90;;;;;;5033692;28;20045;-65
2022/12/25 01:51:04;;;;;;;63.00;14.75;;;6.80;99.90;;;;;;5019656;28;20046;-65
2022/12/25 01:53:30;;;;;;;49.10;14.00;;;6.80;99.90;;;;;;5025551;28;20095;-65
2022/12/25 01:56:00;;;;;;;54.20;14.63;;;6.80;99.90;;;;;;5033472;28;20108;-65
2022/12/25 01:58:26;;;;;;;56.95;14.35;;;6.80;99.90;;;;;;5029862;28;20072;-65
2022/12/25 02:00:52;;;;;;;56.50;14.20;;;6.80;99.90;;;;;;5032633;28;20659;-65
2022/12/25 02:03:19;;;;;;;44.15;13.23;;;6.80;99.90;;;;;;5033030;28;20507;-66
2022/12/25 02:05:46;;;;;;;55.22;14.52;;;6.90;99.90;;;;;;5033576;28;20042;-65
2022/12/25 02:08:14;;;;;;;59.08;14.57;;;6.90;99.90;;;;;;5011577;28;20048;-65
2022/12/25 02:10:43;;;;;;;49.45;14.45;;;6.90;99.90;;;;;;5032797;28;20033;-65
2022/12/25 02:13:11;;;;;;;57.75;14.05;;;6.90;99.90;;;;;;5033087;28;20038;-66
2022/12/25 02:16:02;;;;;;;49.10;13.68;;;6.90;99.90;;;;;;5030659;28;20176;-65
2022/12/25 02:18:37;;;;;;;56.30;13.40;;;7.00;99.90;;;;;;5025730;28;20452;-65
2022/12/25 02:21:17;;;;;;;55.83;13.50;;;7.00;99.90;;;;;;5032288;28;20042;-65
2022/12/25 02:23:55;;;;;;;52.00;12.77;;;7.10;99.90;;;;;;5029708;28;20530;-66
2022/12/25 02:27:01;;;;;;;49.25;13.38;;;7.10;99.90;;;;;;5029322;28;20535;-65
2022/12/25 02:29:48;;;;;;;46.03;12.63;;;7.10;99.90;;;;;;5032615;28;20041;-65
2022/12/25 02:32:39;;;;;;;46.70;13.27;;;7.10;99.90;;;;;;5028201;28;20400;-65
2022/12/25 02:35:14;;;;;;;49.28;14.02;;;7.10;99.90;;;;;;5032208;28;20041;-65
2022/12/25 02:37:47;;;;;;;54.70;15.85;;;7.20;99.90;;;;;;5032645;28;20080;-65
2022/12/25 02:40:21;;;;;;;51.58;14.25;;;7.30;99.90;;;;;;5019171;28;20041;-65
2022/12/25 03:08:08;;;;;;;59.50;15.82;;;7.60;99.90;;;;;;5020068;28;20049;-65
2022/12/25 03:13:28;;;;;;;47.58;14.63;;;7.60;99.90;;;;;;5027434;28;20142;-65
2022/12/25 03:18:38;;;;;;;45.60;13.75;;;7.50;99.90;;;;;;5031724;28;20522;-65
2022/12/25 03:26:56;;;;;;;41.55;13.15;;;7.60;99.90;;;;;;5031061;28;20040;-65
2022/12/25 03:32:33;;;;;;;48.80;14.55;;;7.70;99.90;;;;;;5019192;28;20424;-65
2022/12/25 03:35:23;;;;;;;48.70;13.60;;;7.70;99.90;;;;;;5026095;28;20499;-65
2022/12/25 04:36:14;;;;;;;47.72;16.33;;;8.40;99.90;;;;;;5017332;28;20132;-65
2022/12/25 04:38:41;;;;;;;50.78;15.90;;;8.40;99.90;;;;;;5017805;28;20113;-65
2022/12/25 04:41:11;;;;;;;50.10;15.82;;;8.40;99.90;;;;;;5033679;28;20119;-65
2022/12/25 04:43:37;;;;;;;61.10;15.67;;;8.50;99.90;;;;;;5034952;28;20116;-65
2022/12/25 04:46:03;;;;;;;47.47;16.00;;;8.50;99.90;;;;;;5029818;28;20308;-65
2022/12/25 04:48:32;;;;;;;47.55;16.33;;;8.50;99.90;;;;;;5018935;28;20122;-65
2022/12/25 04:51:08;;;;;;;49.13;15.30;;;8.50;99.90;;;;;;5031466;28;20120;-65
2022/12/25 04:53:33;;;;;;;52.08;15.20;;;8.50;99.90;;;;;;5011173;28;20053;-65
2022/12/25 04:56:02;;;;;;;46.50;14.18;;;8.50;99.90;;;;;;5027807;28;20044;-66
2022/12/25 04:58:28;;;;;;;56.22;14.98;;;8.50;99.90;;;;;;5032988;28;20096;-65
2022/12/25 05:00:53;;;;;;;53.90;14.75;;;8.60;99.90;;;;;;5032988;28;20033;-65
2022/12/25 05:03:19;;;;;;;41.83;14.70;;;8.60;99.90;;;;;;5021880;28;20037;-65
2022/12/25 05:05:44;;;;;;;47.17;14.93;;;8.60;99.90;;;;;;5018424;28;20025;-65
2022/12/25 05:08:10;;;;;;;50.08;15.60;;;8.60;99.90;;;;;;5033174;28;20472;-65
2022/12/25 05:10:38;;;;;;;51.00;15.65;;;8.60;99.90;;;;;;5026487;28;20040;-66
2022/12/25 05:13:04;;;;;;;50.13;16.27;;;8.60;99.90;;;;;;5008559;28;20073;-65
2022/12/25 05:15:29;;;;;;;52.30;15.85;;;8.70;99.90;;;;;;5022156;28;20069;-65
2022/12/25 05:17:55;;;;;;;57.25;15.15;;;8.70;99.90;;;;;;5029074;28;20053;-65
2022/12/25 05:20:21;;;;;;;45.60;15.50;;;8.70;99.90;;;;;;5032445;28;20036;-65
2022/12/25 05:22:46;;;;;;;47.15;16.33;;;8.70;99.90;;;;;;5028001;28;20056;-65
2022/12/25 05:25:12;;;;;;;49.25;15.25;;;8.80;99.90;;;;;;5015050;28;20072;-65
2022/12/25 05:27:37;;;;;;;47.72;16.33;;;8.80;99.90;;;;;;5027947;28;20568;-65
2022/12/25 05:30:03;;;;;;;45.53;15.77;;;8.80;99.90;;;;;;5018624;28;20080;-65
2022/12/25 05:32:29;;;;;;;53.65;15.52;;;8.80;99.90;;;;;;5027490;28;20046;-65
2022/12/25 05:34:55;;;;;;;49.88;15.73;;;8.80;99.90;;;;;;5030954;28;20102;-65
2022/12/25 05:37:20;;;;;;;53.10;15.68;;;8.80;99.90;;;;;;5031707;28;20038;-65
2022/12/25 05:39:46;;;;;;;49.72;16.40;;;8.90;99.90;;;;;;5026635;28;20041;-65
2022/12/25 05:42:12;;;;;;;43.85;16.17;;;8.90;99.90;;;;;;5031051;28;20560;-65
2022/12/25 05:44:37;;;;;;;49.70;16.73;;;8.90;99.90;;;;;;5022073;28;20045;-65
2022/12/25 05:47:03;;;;;;;48.08;16.25;;;8.90;99.90;;;;;;5021088;28;20045;-65
2022/12/25 05:49:29;;;;;;;47.72;15.82;;;8.90;99.90;;;;;;5033041;28;20049;-65
2022/12/25 05:51:54;;;;;;;44.53;16.83;;;9.00;99.90;;;;;;5027497;28;20044;-65
2022/12/25 05:54:20;;;;;;;52.45;17.45;;;9.00;99.90;;;;;;5015584;28;20065;-65
2022/12/25 05:56:45;;;;;;;48.47;15.45;;;9.00;99.90;;;;;;5030912;28;20127;-65
2022/12/25 05:59:11;;;;;;;53.92;17.55;;;9.00;99.90;;;;;;5031074;28;20476;-65
2022/12/25 06:01:36;;;;;;;49.60;15.43;;;9.00;99.90;;;;;;5018281;28;20069;-65
2022/12/25 06:04:02;;;;;;;44.95;14.85;;;9.00;99.90;;;;;;5024030;28;20499;-65
2022/12/25 06:06:28;;;;;;;46.03;14.98;;;9.00;99.90;;;;;;5032298;28;20052;-65
2022/12/25 06:08:54;;;;;;;43.92;15.13;;;9.00;99.90;;;;;;5032052;28;20045;-65
2022/12/25 06:11:20;;;;;;;50.50;15.73;;;8.90;99.90;;;;;;5017955;28;20049;-65
2022/12/25 06:13:51;;;;;;;44.67;14.90;;;9.00;99.90;;;;;;5025744;28;20049;-65
2022/12/25 06:16:17;;;;;;;40.78;13.55;;;9.00;99.90;;;;;;5015167;28;20784;-65
2022/12/25 06:18:47;;;;;;;44.08;14.52;;;9.00;99.90;;;;;;5032261;28;20067;-65
2022/12/25 06:21:14;;;;;;;38.08;13.75;;;9.00;99.90;;;;;;5025952;28;20144;-65
2022/12/25 06:23:40;;;;;;;38.13;14.05;;;9.00;99.90;;;;;;4998901;28;20095;-65
2022/12/25 06:26:09;;;;;;;40.25;13.75;;;9.00;99.90;;;;;;5032218;28;20480;-66
2022/12/25 06:28:35;;;;;;;41.92;15.27;;;9.00;99.90;;;;;;5029180;28;20053;-65
2022/12/25 06:31:08;;;;;;;41.15;13.88;;;9.00;99.90;;;;;;5025307;28;20041;-65
2022/12/25 06:33:34;;;;;;;37.55;12.60;;;8.90;99.90;;;;;;5016785;28;20064;-65
2022/12/25 06:36:04;;;;;;;40.63;12.98;;;9.00;99.90;;;;;;5028366;28;20395;-65
2022/12/25 06:38:30;;;;;;;34.03;12.88;;;9.00;99.90;;;;;;5019577;28;20508;-65
2022/12/25 06:41:01;;;;;;;32.67;12.38;;;8.90;99.90;;;;;;5027545;28;20041;-67
2022/12/25 06:43:26;;;;;;;40.33;12.52;;;8.80;99.90;;;;;;5031154;28;20049;-66
2022/12/25 06:45:52;;;;;;;35.00;11.38;;;8.80;99.90;;;;;;5031539;28;20029;-66
2022/12/25 06:48:17;;;;;;;37.70;11.98;;;8.80;99.90;;;;;;5018165;28;20050;-65
2022/12/25 06:50:43;;;;;;;32.00;11.60;;;8.80;99.90;;;;;;5030285;28;20086;-68
2022/12/25 06:53:09;;;;;;;33.40;11.82;;;8.80;99.90;;;;;;5018223;28;20045;-68
2022/12/25 06:55:34;;;;;;;37.53;12.48;;;8.70;99.90;;;;;;5028769;28;20380;-68
2022/12/25 06:58:00;;;;;;;28.60;10.52;;;8.60;99.90;;;;;;5030756;28;20073;-68
2022/12/25 07:00:25;;;;;;;34.50;12.02;;;8.60;99.90;;;;;;5031425;28;20048;-68
2022/12/25 07:02:51;;;;;;;26.83;11.63;;;8.50;99.90;;;;;;5026435;28;20041;-68
2022/12/25 07:05:17;;;;;;;27.30;11.02;;;8.50;99.90;;;;;;5022663;28;20459;-68
2022/12/25 07:07:42;;;;;;;36.90;11.35;;;8.40;99.90;;;;;;5031867;28;20033;-68
2022/12/25 07:10:08;;;;;;;33.20;11.50;;;8.40;99.90;;;;;;5020880;28;20030;-68
2022/12/25 07:12:34;;;;;;;28.88;10.90;;;8.30;99.90;;;;;;5068048;22;20049;-67
2022/12/25 07:14:59;;;;;;;29.75;10.68;;;8.30;99.90;;;;;;5045734;28;20055;-66
2022/12/25 07:17:25;;;;;;;24.60;10.48;;;8.30;99.90;;;;;;5051502;28;20454;-67
2022/12/25 07:19:51;;;;;;;27.95;10.77;;;8.30;99.90;;;;;;5044855;28;20045;-66
2022/12/25 07:22:17;;;;;;;30.30;10.55;;;8.30;99.90;;;;;;5065625;28;20044;-67
2022/12/25 07:24:42;;;;;;;33.22;11.18;;;8.30;99.90;;;;;;5053587;28;20044;-67
2022/12/25 07:27:08;;;;;;;23.40;10.15;;;8.30;99.90;;;;;;5066960;28;20473;-68
2022/12/25 07:29:34;;;;;;;23.98;9.75;;;8.30;99.90;;;;;;5053359;28;20051;-69
2022/12/25 07:31:59;;;;;;;25.58;10.57;;;8.30;99.90;;;;;;5052858;28;20044;-69
2022/12/25 07:34:25;;;;;;;24.25;10.10;;;8.30;99.90;;;;;;5068526;28;20082;-68
2022/12/25 07:36:51;;;;;;;25.42;9.70;;;8.30;99.90;;;;;;5048265;28;20036;-67
2022/12/25 07:39:16;;;;;;;27.85;9.55;;;8.30;99.90;;;;;;5045762;28;20048;-68
2022/12/25 07:41:43;;;;;;;26.48;10.23;;;8.30;99.90;;;;;;5043215;28;20048;-68
2022/12/25 07:44:08;;;;;;;22.42;9.48;;;8.40;99.90;;;;;;5064169;28;20402;-68
2022/12/25 07:46:34;;;;;;;27.15;10.30;;;8.30;99.90;;;;;;5065812;28;20056;-68
2022/12/25 07:49:00;;;;;;;28.15;9.43;;;8.30;99.90;;;;;;5044484;28;20048;-68
2022/12/25 07:51:28;;;;;;;27.73;9.95;;;8.40;99.90;;;;;;5041630;28;20040;-67
2022/12/25 07:53:55;;;;;;;28.05;10.55;;;8.40;99.90;;;;;;5049738;28;20058;-67
2022/12/25 07:56:21;;;;;;;25.15;10.10;;;8.40;99.90;;;;;;5046150;28;20045;-67
2022/12/25 07:58:47;;;;;;;26.85;10.27;;;8.40;99.90;;;;;;5043817;28;20402;-67
2022/12/25 08:01:19;;;;;;;27.30;10.38;;;8.40;99.90;;;;;;5064982;28;20048;-67
2022/12/25 08:03:53;;;;;;;24.00;9.93;;;8.50;99.90;;;;;;5065144;28;20056;-67
2022/12/25 08:06:20;;;;;;;25.02;9.32;;;8.50;99.90;;;;;;5043264;28;20120;-68
2022/12/25 08:08:46;;;;;;;29.67;11.05;;;8.50;99.90;;;;;;5065423;28;20093;-68
2022/12/25 08:11:12;;;;;;;31.30;9.88;;;8.50;99.90;;;;;;5065623;28;20032;-69
2022/12/25 08:13:38;;;;;;;26.27;10.27;;;8.40;99.90;;;;;;5063601;28;20037;-68
2022/12/25 08:16:08;;;;;;;30.35;10.55;;;8.50;99.90;;;;;;5043602;28;20070;-68
2022/12/25 08:18:35;;;;;;;25.02;10.40;;;8.50;99.90;;;;;;5050209;28;20040;-68
2022/12/25 08:21:04;;;;;;;25.25;10.20;;;8.50;99.90;;;;;;5062168;28;20032;-68
2022/12/25 08:23:32;;;;;;;22.13;9.73;;;8.50;99.90;;;;;;5060423;28;20040;-68
2022/12/25 08:25:59;;;;;;;25.10;10.10;;;8.50;99.90;;;;;;5063180;28;20066;-68
2022/12/25 08:28:24;;;;;;;24.83;9.98;;;8.50;99.90;;;;;;5043666;28;20070;-69
2022/12/25 08:30:50;;;;;;;23.75;10.10;;;8.50;99.90;;;;;;5060076;28;20470;-68
2022/12/25 08:33:15;;;;;;;20.95;9.45;;;8.50;99.90;;;;;;5061795;28;20041;-68
2022/12/25 08:35:41;;;;;;;23.73;9.57;;;8.50;99.90;;;;;;5062662;28;20528;-68
2022/12/25 08:38:07;;;;;;;24.25;9.82;;;8.50;99.90;;;;;;5043513;28;20036;-68
2022/12/25 08:40:32;;;;;;;24.50;9.95;;;8.50;99.90;;;;;;5040633;28;20124;-68
2022/12/25 08:42:58;;;;;;;25.45;10.07;;;8.60;99.90;;;;;;5051566;28;20131;-68
2022/12/25 08:45:24;;;;;;;23.80;9.63;;;8.70;99.90;;;;;;5069342;28;20032;-68
2022/12/25 08:47:54;;;;;;;18.77;9.30;;;8.70;99.90;;;;;;5070434;28;20379;-68
2022/12/25 08:50:20;;;;;;;21.83;9.50;;;8.80;99.90;;;;;;5065447;28;20048;-68
2022/12/25 08:52:46;;;;;;;22.98;9.85;;;8.80;99.90;;;;;;5070299;28;20064;-68
2022/12/25 08:55:12;;;;;;;23.42;9.20;;;8.90;99.90;;;;;;5069525;28;20528;-68
2022/12/25 08:57:37;;;;;;;23.13;9.48;;;9.00;99.90;;;;;;5067908;28;20040;-69
2022/12/25 09:00:03;;;;;;;21.90;9.20;;;9.00;99.90;;;;;;5052250;28;20040;-68
2022/12/25 09:02:29;;;;;;;21.40;8.95;;;9.00;99.90;;;;;;5052173;28;20075;-69
2022/12/25 09:04:54;;;;;;;24.88;9.05;;;9.10;99.90;;;;;;5068039;28;20397;-68
2022/12/25 09:07:20;;;;;;;24.70;10.60;;;9.10;99.90;;;;;;5049121;28;20119;-68
2022/12/25 09:09:45;;;;;;;24.55;9.85;;;9.10;99.90;;;;;;5074079;28;20033;-69
2022/12/25 09:12:11;;;;;;;22.77;9.20;;;9.20;99.90;;;;;;5074022;28;20090;-68
2022/12/25 09:14:37;;;;;;;24.67;10.07;;;9.20;99.90;;;;;;5074257;28;20033;-68
2022/12/25 09:17:02;;;;;;;24.73;10.20;;;9.30;99.90;;;;;;5071266;28;20036;-68
2022/12/25 09:19:28;;;;;;;24.60;10.30;;;9.30;99.90;;;;;;5055154;28;20068;-68
2022/12/25 09:21:53;;;;;;;22.13;9.60;;;9.30;99.90;;;;;;5055980;28;20041;-68
2022/12/25 09:24:19;;;;;;;20.58;8.93;;;9.30;99.90;;;;;;5052817;28;20033;-68
2022/12/25 09:26:45;;;;;;;20.67;10.30;;;9.40;99.90;;;;;;5073588;28;20032;-68
2022/12/25 09:29:11;;;;;;;18.33;8.88;;;9.40;99.90;;;;;;5056052;28;20041;-68
2022/12/25 09:31:36;;;;;;;22.88;9.02;;;9.40;99.90;;;;;;5069988;28;20032;-68
2022/12/25 09:34:02;;;;;;;25.92;10.10;;;9.40;99.90;;;;;;5073175;28;20029;-68
2022/12/25 09:36:27;;;;;;;24.92;10.00;;;9.40;99.90;;;;;;5055945;28;20040;-68
2022/12/25 09:38:53;;;;;;;22.50;11.07;;;9.40;99.90;;;;;;5053108;28;20048;-68
2022/12/25 09:41:30;;;;;;;23.35;9.23;;;9.50;99.90;;;;;;5066502;28;20402;-68
2022/12/25 09:44:02;;;;;;;22.58;10.43;;;9.50;99.90;;;;;;5055374;28;20041;-68
2022/12/25 09:46:38;;;;;;;21.73;10.27;;;9.50;99.90;;;;;;5073517;28;20070;-69
2022/12/25 09:49:21;;;;;;;20.05;10.82;;;9.50;99.90;;;;;;5052143;28;20040;-68
2022/12/25 09:51:53;;;;;;;20.75;9.68;;;9.50;99.90;;;;;;5065960;28;20086;-67
2022/12/25 09:54:26;;;;;;;24.00;9.93;;;9.50;99.90;;;;;;5073634;28;20040;-67
2022/12/25 09:56:52;;;;;;;25.35;10.18;;;9.50;99.90;;;;;;5049478;28;20075;-68
2022/12/25 09:59:23;;;;;;;20.85;9.82;;;9.60;99.90;;;;;;5072468;28;20086;-67
2022/12/25 10:01:56;;;;;;;20.27;9.75;;;9.60;99.90;;;;;;5055136;28;20036;-67
2022/12/25 10:04:37;;;;;;;22.20;9.50;;;9.70;99.90;;;;;;5073540;28;20033;-68
2022/12/25 10:07:21;;;;;;;23.08;9.85;;;9.60;99.90;;;;;;5053979;28;20036;-68
2022/12/25 10:10:02;;;;;;;21.58;9.55;;;9.70;99.90;;;;;;5048014;28;20383;-67
2022/12/25 10:12:38;;;;;;;23.50;10.20;;;9.70;99.90;;;;;;5061943;28;20055;-67
2022/12/25 10:15:35;;;;;;;18.42;9.95;;;9.70;99.90;;;;;;5071837;28;20036;-68
2022/12/25 10:18:43;;;;;;;22.80;10.00;;;9.70;99.90;;;;;;5067168;28;20048;-68
2022/12/25 10:21:13;;;;;;;21.80;9.45;;;9.70;99.90;;;;;;5067269;28;20051;-68
2022/12/25 10:24:04;;;;;;;23.45;10.02;;;9.70;99.90;;;;;;5071570;28;20036;-69
2022/12/25 10:26:31;;;;;;;;;;;9.70;99.90;;;;;;5042592;28;20495;-68
2022/12/25 10:29:04;;;;;;;21.35;8.60;;;9.70;99.90;;;;;;5071412;28;19938;-67
2022/12/25 10:31:34;;;;;;;17.35;8.70;;;9.80;99.90;;;;;;5067372;28;20075;-67
2022/12/25 10:34:00;;;;;;;20.50;9.35;;;9.80;99.90;;;;;;5071284;28;20127;-68
2022/12/25 10:36:28;;;;;;;20.77;8.60;;;9.80;99.90;;;;;;5070980;28;20127;-68
2022/12/25 10:38:54;;;;;;;24.23;9.50;;;9.80;99.90;;;;;;5069766;28;20064;-68
2022/12/25 10:41:40;;;;;;;21.92;9.40;;;9.80;99.90;;;;;;5071551;28;20118;-67
2022/12/25 10:44:19;;;;;;;19.95;9.20;;;9.80;99.90;;;;;;5072479;28;20115;-68
2022/12/25 10:46:56;;;;;;;19.73;8.85;;;9.90;99.90;;;;;;5069480;28;20025;-67
2022/12/25 10:49:25;;;;;;;19.58;9.25;;;9.90;99.90;;;;;;5071847;28;20067;-67
2022/12/25 10:51:51;;;;;;;19.25;9.43;;;9.90;99.90;;;;;;5072228;28;20123;-68
2022/12/25 10:54:20;;;;;;;21.35;9.18;;;10.00;99.90;;;;;;5068062;28;20672;-68
2022/12/25 10:56:57;;;;;;;20.80;9.18;;;10.00;99.90;;;;;;5068637;28;20039;-67
2022/12/25 10:59:27;;;;;;;19.50;8.93;;;10.00;99.90;;;;;;5081742;28;20082;-68
2022/12/25 11:01:54;;;;;;;18.65;9.10;;;10.00;99.90;;;;;;5069659;28;20083;-67
2022/12/25 11:04:24;;;;;;;21.40;8.55;;;10.00;99.90;;;;;;5068777;28;20666;-68
2022/12/25 11:07:00;;;;;;;18.60;8.55;;;10.00;99.90;;;;;;5071682;28;20090;-68
2022/12/25 11:09:26;;;;;;;15.00;7.80;;;10.00;99.90;;;;;;5070583;28;20105;-67
2022/12/25 11:11:52;;;;;;;17.00;8.57;;;10.00;99.90;;;;;;5068108;28;20036;-68
2022/12/25 11:14:19;;;;;;;15.27;8.02;;;10.00;99.90;;;;;;5071544;28;20040;-68
2022/12/25 11:16:46;;;;;;;17.35;9.02;;;10.00;99.90;;;;;;5054020;28;20440;-67
2022/12/25 11:19:29;;;;;;;19.58;8.68;;;10.00;99.90;;;;;;5051493;28;20028;-68
2022/12/25 11:21:58;;;;;;;20.88;8.57;;;10.00;99.90;;;;;;5052269;28;20032;-68
2022/12/25 11:24:33;;;;;;;16.42;8.38;;;10.00;99.90;;;;;;5070963;28;20044;-67
2022/12/25 11:27:03;;;;;;;20.50;9.10;;;9.90;99.90;;;;;;5054323;28;20036;-67
2022/12/25 11:29:48;;;;;;;19.52;8.57;;;9.90;99.90;;;;;;5049938;28;20056;-68
2022/12/25 11:32:33;;;;;;;19.02;8.93;;;10.00;99.90;;;;;;5071102;28;20055;-67
2022/12/25 11:35:01;;;;;;;20.23;8.63;;;10.00;99.90;;;;;;5071487;28;20113;-68
2022/12/25 11:37:37;;;;;;;18.50;8.48;;;10.00;99.90;;;;;;5068451;28;20040;-68
2022/12/25 11:40:04;;;;;;;16.35;8.13;;;10.10;99.90;;;;;;5053267;28;20127;-68
2022/12/25 11:42:31;;;;;;;17.23;8.95;;;10.10;99.90;;;;;;5053252;28;20044;-67
2022/12/25 11:45:19;;;;;;;16.83;8.40;;;10.10;99.90;;;;;;5070489;28;20441;-68
2022/12/25 11:48:04;;;;;;;18.08;8.52;;;10.10;99.90;;;;;;5052241;28;20036;-68
2022/12/25 11:50:36;;;;;;;17.35;8.52;;;10.10;99.90;;;;;;5071139;28;20452;-68
2022/12/25 11:53:06;;;;;;;18.45;8.75;;;10.10;99.90;;;;;;5068565;28;20043;-68
2022/12/25 11:55:56;;;;;;;16.13;7.80;;;10.10;99.90;;;;;;5052363;28;20048;-67
2022/12/25 11:58:31;;;;;;;16.55;7.88;;;10.00;99.90;;;;;;5071143;28;20394;-67
2022/12/25 12:01:01;;;;;;;19.35;8.70;;;10.10;99.90;;;;;;5071452;28;20041;-67
2022/12/25 12:03:36;;;;;;;19.50;7.88;;;10.10;99.90;;;;;;5067972;28;20037;-67
2022/12/25 12:06:23;;;;;;;19.27;8.68;;;10.10;99.90;;;;;;5047732;28;20037;-67
2022/12/25 12:08:54;;;;;;;20.58;8.35;;;10.10;99.90;;;;;;5051629;28;20128;-67
2022/12/25 12:11:32;;;;;;;15.45;7.95;;;10.10;99.90;;;;;;5063470;28;20041;-67
2022/12/25 12:14:19;;;;;;;13.88;8.13;;;10.10;99.90;;;;;;5047713;28;20051;-67
2022/12/25 12:16:45;;;;;;;14.35;7.85;;;10.10;99.90;;;;;;5033701;28;20045;-68
2022/12/25 12:19:22;;;;;;;14.32;7.88;;;10.20;99.90;;;;;;5051478;28;20044;-68
2022/12/25 12:21:49;;;;;;;16.20;8.10;;;10.20;99.90;;;;;;5069005;28;20048;-68
2022/12/25 12:24:21;;;;;;;12.27;7.97;;;10.20;99.90;;;;;;5071183;28;20035;-69
2022/12/25 12:27:03;;;;;;;14.15;7.97;;;10.20;99.90;;;;;;5053799;28;20024;-68
2022/12/25 12:29:34;;;;;;;18.77;8.45;;;10.30;99.90;;;;;;5052472;28;20095;-68
2022/12/25 12:32:03;;;;;;;18.98;8.55;;;10.30;99.90;;;;;;5053093;28;20131;-68
2022/12/25 12:34:42;;;;;;;15.20;8.30;;;10.30;99.90;;;;;;5071060;28;20127;-68
2022/12/25 12:37:23;;;;;;;19.63;7.78;;;10.30;99.90;;;;;;5047415;28;20448;-68
2022/12/25 12:39:54;;;;;;;16.58;7.93;;;10.40;99.90;;;;;;5045730;28;20037;-67
2022/12/25 12:42:24;;;;;;;15.10;7.75;;;10.40;99.90;;;;;;5071404;28;20044;-68
2022/12/25 12:44:52;;;;;;;16.85;8.32;;;10.40;99.90;;;;;;5071376;28;20068;-68
2022/12/25 12:47:39;;;;;;;15.75;7.95;;;10.30;99.90;;;;;;5071377;28;20497;-68
2022/12/25 12:50:05;;;;;;;14.45;7.25;;;10.30;99.90;;;;;;5075097;28;20474;-68
2022/12/25 12:52:37;;;;;;;14.00;7.68;;;10.20;99.90;;;;;;5071335;28;20036;-68
2022/12/25 12:55:11;;;;;;;15.98;7.35;;;10.20;99.90;;;;;;5056573;28;20040;-68
2022/12/25 12:57:38;;;;;;;17.13;7.38;;;10.20;99.90;;;;;;5074276;28;20043;-68
2022/12/25 13:00:13;;;;;;;16.55;7.45;;;10.10;99.90;;;;;;5071498;28;20190;-69
2022/12/25 13:02:54;;;;;;;12.80;7.32;;;10.10;99.90;;;;;;5055253;28;20051;-68
2022/12/25 13:05:38;;;;;;;15.07;7.63;;;10.10;99.90;;;;;;5056400;28;20040;-68
2022/12/25 13:08:27;;;;;;;14.10;7.72;;;10.10;99.90;;;;;;5072602;28;20170;-70
2022/12/25 13:11:23;;;;;;;15.25;7.40;;;10.10;99.90;;;;;;5072738;28;20044;-68
2022/12/25 13:13:55;;;;;;;15.77;7.38;;;10.10;99.90;;;;;;5074891;22;20069;-66
2022/12/25 13:16:25;;;;;;;17.35;7.55;;;10.00;99.90;;;;;;5033963;28;20045;-66
2022/12/25 13:18:54;;;;;;;15.45;7.43;;;10.00;99.90;;;;;;5028855;28;20037;-66
2022/12/25 13:21:25;;;;;;;14.10;7.63;;;10.00;99.90;;;;;;5051067;28;20044;-67
2022/12/25 13:24:02;;;;;;;14.52;7.60;;;10.00;99.90;;;;;;5036505;28;20406;-67
2022/12/25 13:26:29;;;;;;;13.23;6.88;;;10.00;99.90;;;;;;5035294;28;20549;-67
2022/12/25 13:28:55;;;;;;;19.42;7.45;;;10.00;99.90;;;;;;5053740;28;20041;-67
2022/12/25 13:31:24;;;;;;;15.45;7.60;;;10.00;99.90;;;;;;5053477;28;20124;-67
2022/12/25 13:34:04;;;;;;;18.23;8.13;;;10.00;99.90;;;;;;5045457;28;20048;-67
2022/12/25 13:36:36;;;;;;;20.80;8.18;;;10.00;99.90;;;;;;5051053;28;20283;-67
2022/12/25 13:39:06;;;;;;;16.20;8.18;;;10.00;99.90;;;;;;5053585;28;20045;-67
2022/12/25 13:44:30;;;;;;;16.17;8.73;;;9.90;99.90;;;;;;5041000;28;20044;-66
2022/12/25 13:47:17;;;;;;;23.27;9.40;;;9.80;99.90;;;;;;5048486;28;20047;-66
2022/12/25 13:49:43;;;;;;;19.10;8.50;;;9.80;99.90;;;;;;5048194;28;20045;-67
2022/12/25 13:52:19;;;;;;;19.60;9.10;;;9.80;99.90;;;;;;5035510;28;20044;-67
2022/12/25 13:54:59;;;;;;;17.52;9.10;;;9.80;99.90;;;;;;5051588;28;20028;-67
2022/12/25 13:57:32;;;;;;;18.87;8.70;;;9.80;99.90;;;;;;5047722;28;20491;-68
2022/12/25 13:59:59;;;;;;;17.38;9.55;;;9.70;99.90;;;;;;5042235;28;20319;-67
2022/12/25 14:02:31;;;;;;;18.85;9.43;;;9.70;99.90;;;;;;5039711;28;20076;-66
2022/12/25 14:04:57;;;;;;;16.05;9.80;;;9.70;99.90;;;;;;5042975;28;20047;-66
2022/12/25 14:07:24;;;;;;;19.90;9.55;;;9.60;99.90;;;;;;5040549;28;20045;-65
2022/12/25 14:09:58;;;;;;;23.67;10.60;;;9.60;99.90;;;;;;5047610;28;20510;-65
2022/12/25 14:12:24;;;;;;;17.42;9.88;;;9.60;99.90;;;;;;5037314;28;20041;-65
2022/12/25 14:14:51;;;;;;;19.08;9.85;;;9.60;99.90;;;;;;5045331;28;20537;-66
2022/12/25 14:17:17;;;;;;;21.92;10.05;;;9.50;99.90;;;;;;5049989;28;20108;-65
2022/12/25 14:19:43;;;;;;;21.23;10.32;;;9.50;99.90;;;;;;5052237;28;20594;-64
2022/12/25 14:22:21;;;;;;;22.92;10.15;;;9.50;99.90;;;;;;5051145;28;20395;-65
2022/12/25 14:24:47;;;;;;;23.38;10.50;;;9.50;99.90;;;;;;5040115;28;20091;-65
2022/12/25 14:27:25;;;;;;;19.08;10.48;;;9.50;99.90;;;;;;5044353;28;20136;-65
2022/12/25 14:29:55;;;;;;;21.40;10.95;;;9.50;99.90;;;;;;5038438;28;20037;-65
2022/12/25 14:32:24;;;;;;;20.95;10.07;;;9.50;99.90;;;;;;5034413;28;20068;-65
2022/12/25 14:34:55;;;;;;;21.75;11.50;;;9.50;99.90;;;;;;5051748;28;20530;-66
2022/12/25 14:37:25;;;;;;;21.27;10.75;;;9.50;99.90;;;;;;5052018;28;20033;-65